sensor_id;sensor_type;location;lat;lon;timestamp;temperature;humidity
23069;DHT22;11702;50.856;4.348;2022-09-14T00:01:34;17.20;99.90
23069;DHT22;11702;50.856;4.348;2022-09-14T00:04:07;17.10;99.90
23069;DHT22;11702;50.856;4.348;2022-09-14T00:06:35;17.10;99.90
23069;DHT22;11702;50.856;4.348;2022-09-14T00:09:02;17.20;99.90
23069;DHT22;11702;50.856;4.348;2022-09-14T00:11:29;17.10;99.90
23069;DHT22;11702;50.856;4.348;2022-09-14T00:13:56;17.00;99.90
23069;DHT22;11702;50.856;4.348;2022-09-14T00:16:26;17.00;99.90
23069;DHT22;11702;50.856;4.348;2022-09-14T00:18:55;17.00;99.90
23069;DHT22;11702;50.856;4.348;2022-09-14T00:21:22;17.10;99.90
23069;DHT22;11702;50.856;4.348;2022-09-14T00:23:48;17.10;99.90
23069;DHT22;11702;50.856;4.348;2022-09-14T00:26:17;17.10;99.90
23069;DHT22;11702;50.856;4.348;2022-09-14T00:28:46;17.10;99.90
23069;DHT22;11702;50.856;4.348;2022-09-14T00:31:13;17.00;99.90
23069;DHT22;11702;50.856;4.348;2022-09-14T00:33:41;17.10;99.90
23069;DHT22;11702;50.856;4.348;2022-09-14T00:36:09;17.10;99.90
23069;DHT22;11702;50.856;4.348;2022-09-14T00:38:36;17.10;99.90
23069;DHT22;11702;50.856;4.348;2022-09-14T00:41:03;17.30;99.90
23069;DHT22;11702;50.856;4.348;2022-09-14T00:43:29;17.00;99.90
23069;DHT22;11702;50.856;4.348;2022-09-14T00:45:55;17.00;99.90
23069;DHT22;11702;50.856;4.348;2022-09-14T00:48:23;17.10;99.90
23069;DHT22;11702;50.856;4.348;2022-09-14T00:50:49;17.00;99.90
23069;DHT22;11702;50.856;4.348;2022-09-14T00:53:16;16.80;99.90
23069;DHT22;11702;50.856;4.348;2022-09-14T00:55:41;16.90;99.90
23069;DHT22;11702;50.856;4.348;2022-09-14T00:58:07;16.80;99.90
23069;DHT22;11702;50.856;4.348;2022-09-14T01:00:33;16.70;99.90
23069;DHT22;11702;50.856;4.348;2022-09-14T01:02:58;16.80;99.90
23069;DHT22;11702;50.856;4.348;2022-09-14T01:06:21;16.80;99.90
23069;DHT22;11702;50.856;4.348;2022-09-14T01:23:19;16.80;99.90
23069;DHT22;11702;50.856;4.348;2022-09-14T01:26:13;16.70;99.90
23069;DHT22;11702;50.856;4.348;2022-09-14T01:28:56;16.90;99.90
23069;DHT22;11702;50.856;4.348;2022-09-14T01:31:46;16.70;99.90
23069;DHT22;11702;50.856;4.348;2022-09-14T01:36:51;16.60;99.90
23069;DHT22;11702;50.856;4.348;2022-09-14T01:39:20;16.60;99.90
23069;DHT22;11702;50.856;4.348;2022-09-14T01:41:48;16.50;99.90
23069;DHT22;11702;50.856;4.348;2022-09-14T01:44:19;16.50;99.90
23069;DHT22;11702;50.856;4.348;2022-09-14T01:46:50;16.50;99.90
23069;DHT22;11702;50.856;4.348;2022-09-14T01:49:23;16.60;99.90
23069;DHT22;11702;50.856;4.348;2022-09-14T01:52:15;16.60;99.90
23069;DHT22;11702;50.856;4.348;2022-09-14T01:54:44;16.50;99.90
23069;DHT22;11702;50.856;4.348;2022-09-14T01:57:20;16.50;99.90
23069;DHT22;11702;50.856;4.348;2022-09-14T01:59:50;16.40;99.90
23069;DHT22;11702;50.856;4.348;2022-09-14T02:02:31;16.50;99.90
23069;DHT22;11702;50.856;4.348;2022-09-14T02:05:07;16.50;99.90
23069;DHT22;11702;50.856;4.348;2022-09-14T02:07:34;16.50;99.90
23069;DHT22;11702;50.856;4.348;2022-09-14T02:10:01;16.40;99.90
23069;DHT22;11702;50.856;4.348;2022-09-14T02:12:28;16.30;99.90
23069;DHT22;11702;50.856;4.348;2022-09-14T02:14:54;16.40;99.90
23069;DHT22;11702;50.856;4.348;2022-09-14T02:17:20;16.30;99.90
23069;DHT22;11702;50.856;4.348;2022-09-14T02:19:51;16.20;99.90
23069;DHT22;11702;50.856;4.348;2022-09-14T02:22:17;16.10;99.90
23069;DHT22;11702;50.856;4.348;2022-09-14T02:24:43;16.00;99.90
23069;DHT22;11702;50.856;4.348;2022-09-14T02:27:08;16.00;99.90
23069;DHT22;11702;50.856;4.348;2022-09-14T02:29:34;15.90;99.90
23069;DHT22;11702;50.856;4.348;2022-09-14T02:38:16;15.80;99.90
23069;DHT22;11702;50.856;4.348;2022-09-14T02:46:55;15.80;99.90
23069;DHT22;11702;50.856;4.348;2022-09-14T02:49:43;15.70;99.90
23069;DHT22;11702;50.856;4.348;2022-09-14T02:52:46;15.60;99.90
23069;DHT22;11702;50.856;4.348;2022-09-14T02:55:25;15.60;99.90
23069;DHT22;11702;50.856;4.348;2022-09-14T02:58:11;15.50;99.90
23069;DHT22;11702;50.856;4.348;2022-09-14T03:00:43;15.50;99.90
23069;DHT22;11702;50.856;4.348;2022-09-14T03:03:11;15.50;99.90
23069;DHT22;11702;50.856;4.348;2022-09-14T03:05:37;15.60;99.90
23069;DHT22;11702;50.856;4.348;2022-09-14T03:08:03;15.60;99.90
23069;DHT22;11702;50.856;4.348;2022-09-14T03:10:30;15.50;99.90
23069;DHT22;11702;50.856;4.348;2022-09-14T03:12:56;15.50;99.90
23069;DHT22;11702;50.856;4.348;2022-09-14T03:15:22;15.60;99.90
23069;DHT22;11702;50.856;4.348;2022-09-14T03:17:48;15.50;99.90
23069;DHT22;11702;50.856;4.348;2022-09-14T03:20:16;15.40;99.90
23069;DHT22;11702;50.856;4.348;2022-09-14T03:22:42;15.40;99.90
23069;DHT22;11702;50.856;4.348;2022-09-14T03:25:08;15.40;99.90
23069;DHT22;11702;50.856;4.348;2022-09-14T03:27:34;15.40;99.90
23069;DHT22;11702;50.856;4.348;2022-09-14T03:29:59;15.40;99.90
23069;DHT22;11702;50.856;4.348;2022-09-14T03:32:25;15.40;99.90
23069;DHT22;11702;50.856;4.348;2022-09-14T03:34:50;15.40;99.90
23069;DHT22;11702;50.856;4.348;2022-09-14T03:37:16;15.40;99.90
23069;DHT22;11702;50.856;4.348;2022-09-14T03:39:41;15.50;99.90
23069;DHT22;11702;50.856;4.348;2022-09-14T03:42:07;15.50;99.90
23069;DHT22;11702;50.856;4.348;2022-09-14T03:44:33;15.50;99.90
23069;DHT22;11702;50.856;4.348;2022-09-14T03:46:58;15.50;99.90
23069;DHT22;11702;50.856;4.348;2022-09-14T03:49:24;15.60;99.90
23069;DHT22;11702;50.856;4.348;2022-09-14T03:51:50;15.60;99.90
23069;DHT22;11702;50.856;4.348;2022-09-14T03:54:15;15.60;99.90
23069;DHT22;11702;50.856;4.348;2022-09-14T03:56:41;15.50;99.90
23069;DHT22;11702;50.856;4.348;2022-09-14T03:59:11;15.50;99.90
23069;DHT22;11702;50.856;4.348;2022-09-14T04:01:37;15.40;99.90
23069;DHT22;11702;50.856;4.348;2022-09-14T04:04:03;15.40;99.90
23069;DHT22;11702;50.856;4.348;2022-09-14T04:06:29;15.30;99.90
23069;DHT22;11702;50.856;4.348;2022-09-14T04:08:54;15.20;99.90
23069;DHT22;11702;50.856;4.348;2022-09-14T04:11:22;15.20;99.90
23069;DHT22;11702;50.856;4.348;2022-09-14T04:13:48;15.20;99.90
23069;DHT22;11702;50.856;4.348;2022-09-14T04:16:15;15.20;99.90
23069;DHT22;11702;50.856;4.348;2022-09-14T04:18:41;15.20;99.90
23069;DHT22;11702;50.856;4.348;2022-09-14T04:21:13;15.30;99.90
23069;DHT22;11702;50.856;4.348;2022-09-14T04:23:38;15.30;99.90
23069;DHT22;11702;50.856;4.348;2022-09-14T04:26:16;15.40;99.90
23069;DHT22;11702;50.856;4.348;2022-09-14T04:28:42;15.30;99.90
23069;DHT22;11702;50.856;4.348;2022-09-14T04:31:09;15.30;99.90
23069;DHT22;11702;50.856;4.348;2022-09-14T04:33:36;15.30;99.90
23069;DHT22;11702;50.856;4.348;2022-09-14T04:36:08;15.30;99.90
23069;DHT22;11702;50.856;4.348;2022-09-14T04:38:35;15.20;99.90
23069;DHT22;11702;50.856;4.348;2022-09-14T04:41:08;15.20;99.90
23069;DHT22;11702;50.856;4.348;2022-09-14T04:43:34;15.20;99.90
23069;DHT22;11702;50.856;4.348;2022-09-14T04:46:01;15.10;99.90
23069;DHT22;11702;50.856;4.348;2022-09-14T04:48:28;15.00;99.90
23069;DHT22;11702;50.856;4.348;2022-09-14T04:51:02;15.00;99.90
23069;DHT22;11702;50.856;4.348;2022-09-14T04:53:28;15.10;99.90
23069;DHT22;11702;50.856;4.348;2022-09-14T04:55:59;15.10;99.90
23069;DHT22;11702;50.856;4.348;2022-09-14T04:58:25;15.00;99.90
23069;DHT22;11702;50.856;4.348;2022-09-14T05:00:50;15.00;99.90
23069;DHT22;11702;50.856;4.348;2022-09-14T05:03:16;14.90;99.90
23069;DHT22;11702;50.856;4.348;2022-09-14T05:05:42;14.90;99.90
23069;DHT22;11702;50.856;4.348;2022-09-14T05:08:07;15.00;99.90
23069;DHT22;11702;50.856;4.348;2022-09-14T05:10:33;14.90;99.90
23069;DHT22;11702;50.856;4.348;2022-09-14T05:12:58;15.00;99.90
23069;DHT22;11702;50.856;4.348;2022-09-14T05:15:24;15.00;99.90
23069;DHT22;11702;50.856;4.348;2022-09-14T05:17:49;15.00;99.90
23069;DHT22;11702;50.856;4.348;2022-09-14T05:20:17;14.90;99.90
23069;DHT22;11702;50.856;4.348;2022-09-14T05:22:42;14.90;99.90
23069;DHT22;11702;50.856;4.348;2022-09-14T05:25:08;14.90;99.90
23069;DHT22;11702;50.856;4.348;2022-09-14T05:27:34;14.90;99.90
23069;DHT22;11702;50.856;4.348;2022-09-14T05:30:00;14.90;99.90
23069;DHT22;11702;50.856;4.348;2022-09-14T05:32:25;14.90;99.90
23069;DHT22;11702;50.856;4.348;2022-09-14T05:34:51;14.90;99.90
23069;DHT22;11702;50.856;4.348;2022-09-14T05:37:16;14.80;99.90
23069;DHT22;11702;50.856;4.348;2022-09-14T05:39:42;14.80;99.90
23069;DHT22;11702;50.856;4.348;2022-09-14T05:42:09;14.90;99.90
23069;DHT22;11702;50.856;4.348;2022-09-14T05:44:35;14.90;99.90
23069;DHT22;11702;50.856;4.348;2022-09-14T05:47:00;14.90;99.90
23069;DHT22;11702;50.856;4.348;2022-09-14T05:49:26;14.90;99.90
23069;DHT22;11702;50.856;4.348;2022-09-14T05:51:52;14.90;99.90
23069;DHT22;11702;50.856;4.348;2022-09-14T05:54:17;14.90;99.90
23069;DHT22;11702;50.856;4.348;2022-09-14T05:56:43;14.90;99.90
23069;DHT22;11702;50.856;4.348;2022-09-14T05:59:08;15.00;99.90
23069;DHT22;11702;50.856;4.348;2022-09-14T06:01:35;15.10;99.90
23069;DHT22;11702;50.856;4.348;2022-09-14T06:04:01;15.10;99.90
23069;DHT22;11702;50.856;4.348;2022-09-14T06:06:28;15.00;99.90
23069;DHT22;11702;50.856;4.348;2022-09-14T06:08:55;14.90;99.90
23069;DHT22;11702;50.856;4.348;2022-09-14T06:11:32;14.90;99.90
23069;DHT22;11702;50.856;4.348;2022-09-14T06:14:01;14.90;99.90
23069;DHT22;11702;50.856;4.348;2022-09-14T06:16:27;14.90;99.90
23069;DHT22;11702;50.856;4.348;2022-09-14T06:18:55;15.00;99.90
23069;DHT22;11702;50.856;4.348;2022-09-14T06:21:21;15.00;99.90
23069;DHT22;11702;50.856;4.348;2022-09-14T06:23:48;15.00;99.90
23069;DHT22;11702;50.856;4.348;2022-09-14T06:26:14;15.00;99.90
23069;DHT22;11702;50.856;4.348;2022-09-14T06:28:40;15.00;99.90
23069;DHT22;11702;50.856;4.348;2022-09-14T06:31:07;15.00;99.90
23069;DHT22;11702;50.856;4.348;2022-09-14T06:33:35;15.00;99.90
23069;DHT22;11702;50.856;4.348;2022-09-14T06:36:04;15.10;99.90
23069;DHT22;11702;50.856;4.348;2022-09-14T06:38:34;15.10;99.90
23069;DHT22;11702;50.856;4.348;2022-09-14T06:41:01;15.10;99.90
23069;DHT22;11702;50.856;4.348;2022-09-14T06:43:30;15.20;99.90
23069;DHT22;11702;50.856;4.348;2022-09-14T06:48:39;15.10;99.90
23069;DHT22;11702;50.856;4.348;2022-09-14T06:51:21;15.20;99.90
23069;DHT22;11702;50.856;4.348;2022-09-14T06:53:48;15.30;99.90
23069;DHT22;11702;50.856;4.348;2022-09-14T06:56:15;15.20;99.90
23069;DHT22;11702;50.856;4.348;2022-09-14T06:58:41;15.10;99.90
23069;DHT22;11702;50.856;4.348;2022-09-14T07:01:09;15.10;99.90
23069;DHT22;11702;50.856;4.348;2022-09-14T07:03:37;15.20;99.90
23069;DHT22;11702;50.856;4.348;2022-09-14T07:06:08;15.20;99.90
23069;DHT22;11702;50.856;4.348;2022-09-14T07:08:36;15.20;99.90
23069;DHT22;11702;50.856;4.348;2022-09-14T07:11:02;15.20;99.90
23069;DHT22;11702;50.856;4.348;2022-09-14T07:13:29;15.20;99.90
23069;DHT22;11702;50.856;4.348;2022-09-14T07:15:55;15.20;99.90
23069;DHT22;11702;50.856;4.348;2022-09-14T07:18:21;15.20;99.90
23069;DHT22;11702;50.856;4.348;2022-09-14T07:20:48;15.30;99.90
23069;DHT22;11702;50.856;4.348;2022-09-14T07:23:15;15.30;99.90
23069;DHT22;11702;50.856;4.348;2022-09-14T07:25:41;15.20;99.90
23069;DHT22;11702;50.856;4.348;2022-09-14T07:28:07;15.20;99.90
23069;DHT22;11702;50.856;4.348;2022-09-14T07:30:37;15.30;99.90
23069;DHT22;11702;50.856;4.348;2022-09-14T07:33:06;15.30;99.90
23069;DHT22;11702;50.856;4.348;2022-09-14T07:35:32;15.20;99.90
23069;DHT22;11702;50.856;4.348;2022-09-14T07:37:58;15.20;99.90
23069;DHT22;11702;50.856;4.348;2022-09-14T07:40:23;15.20;99.90
23069;DHT22;11702;50.856;4.348;2022-09-14T07:42:50;15.20;99.90
23069;DHT22;11702;50.856;4.348;2022-09-14T07:45:16;15.30;99.90
23069;DHT22;11702;50.856;4.348;2022-09-14T07:47:42;15.40;99.90
23069;DHT22;11702;50.856;4.348;2022-09-14T07:50:08;15.40;99.90
23069;DHT22;11702;50.856;4.348;2022-09-14T07:52:33;15.40;99.90
23069;DHT22;11702;50.856;4.348;2022-09-14T07:54:59;15.50;99.90
23069;DHT22;11702;50.856;4.348;2022-09-14T07:57:25;15.50;99.90
23069;DHT22;11702;50.856;4.348;2022-09-14T07:59:51;15.50;99.90
23069;DHT22;11702;50.856;4.348;2022-09-14T08:02:17;15.60;99.90
23069;DHT22;11702;50.856;4.348;2022-09-14T08:04:43;15.60;99.90
23069;DHT22;11702;50.856;4.348;2022-09-14T08:07:09;15.70;99.90
23069;DHT22;11702;50.856;4.348;2022-09-14T08:09:36;15.60;99.90
23069;DHT22;11702;50.856;4.348;2022-09-14T08:12:02;15.40;99.90
23069;DHT22;11702;50.856;4.348;2022-09-14T08:14:28;15.40;99.90
23069;DHT22;11702;50.856;4.348;2022-09-14T08:16:54;15.40;99.90
23069;DHT22;11702;50.856;4.348;2022-09-14T08:19:20;15.30;99.90
23069;DHT22;11702;50.856;4.348;2022-09-14T08:21:46;15.40;99.90
23069;DHT22;11702;50.856;4.348;2022-09-14T08:24:14;15.30;99.90
23069;DHT22;11702;50.856;4.348;2022-09-14T08:26:40;15.30;99.90
23069;DHT22;11702;50.856;4.348;2022-09-14T08:29:06;15.40;99.90
23069;DHT22;11702;50.856;4.348;2022-09-14T08:31:36;15.40;99.90
23069;DHT22;11702;50.856;4.348;2022-09-14T08:34:03;15.50;99.90
23069;DHT22;11702;50.856;4.348;2022-09-14T08:36:40;15.40;99.90
23069;DHT22;11702;50.856;4.348;2022-09-14T08:39:08;15.40;99.90
23069;DHT22;11702;50.856;4.348;2022-09-14T08:41:51;15.50;99.90
23069;DHT22;11702;50.856;4.348;2022-09-14T08:44:30;15.70;99.90
23069;DHT22;11702;50.856;4.348;2022-09-14T08:47:03;15.70;99.90
23069;DHT22;11702;50.856;4.348;2022-09-14T08:52:03;15.60;99.90
23069;DHT22;11702;50.856;4.348;2022-09-14T08:54:30;15.60;99.90
23069;DHT22;11702;50.856;4.348;2022-09-14T08:57:18;15.70;99.90
23069;DHT22;11702;50.856;4.348;2022-09-14T09:05:06;15.60;99.90
23069;DHT22;11702;50.856;4.348;2022-09-14T09:08:00;15.60;99.90
23069;DHT22;11702;50.856;4.348;2022-09-14T09:10:28;15.70;99.90
23069;DHT22;11702;50.856;4.348;2022-09-14T09:13:00;15.80;99.90
23069;DHT22;11702;50.856;4.348;2022-09-14T09:15:34;15.70;99.90
23069;DHT22;11702;50.856;4.348;2022-09-14T09:18:22;15.70;99.90
23069;DHT22;11702;50.856;4.348;2022-09-14T09:20:53;15.70;99.90
23069;DHT22;11702;50.856;4.348;2022-09-14T09:23:25;15.70;99.90
23069;DHT22;11702;50.856;4.348;2022-09-14T09:26:14;15.70;99.90
23069;DHT22;11702;50.856;4.348;2022-09-14T09:28:49;15.70;99.90
23069;DHT22;11702;50.856;4.348;2022-09-14T09:31:18;15.60;99.90
23069;DHT22;11702;50.856;4.348;2022-09-14T09:33:47;15.60;99.90
23069;DHT22;11702;50.856;4.348;2022-09-14T09:36:13;15.70;99.90
23069;DHT22;11702;50.856;4.348;2022-09-14T09:38:40;15.70;99.90
23069;DHT22;11702;50.856;4.348;2022-09-14T09:41:27;15.70;99.90
23069;DHT22;11702;50.856;4.348;2022-09-14T09:44:05;15.80;99.90
23069;DHT22;11702;50.856;4.348;2022-09-14T09:46:38;15.80;99.90
23069;DHT22;11702;50.856;4.348;2022-09-14T09:49:19;15.90;99.90
23069;DHT22;11702;50.856;4.348;2022-09-14T09:51:45;15.90;99.90
23069;DHT22;11702;50.856;4.348;2022-09-14T09:56:55;15.90;99.90
23069;DHT22;11702;50.856;4.348;2022-09-14T09:59:39;15.80;99.90
23069;DHT22;11702;50.856;4.348;2022-09-14T10:07:33;15.90;99.90
23069;DHT22;11702;50.856;4.348;2022-09-14T10:10:05;16.00;99.90
23069;DHT22;11702;50.856;4.348;2022-09-14T10:12:31;16.20;99.90
23069;DHT22;11702;50.856;4.348;2022-09-14T10:15:14;16.00;99.90
23069;DHT22;11702;50.856;4.348;2022-09-14T10:20:25;15.70;99.90
23069;DHT22;11702;50.856;4.348;2022-09-14T10:22:51;15.70;99.90
23069;DHT22;11702;50.856;4.348;2022-09-14T10:30:36;15.70;99.90
23069;DHT22;11702;50.856;4.348;2022-09-14T10:33:08;15.60;99.90
23069;DHT22;11702;50.856;4.348;2022-09-14T10:40:55;15.70;99.90
23069;DHT22;11702;50.856;4.348;2022-09-14T10:46:37;15.70;99.90
23069;DHT22;11702;50.856;4.348;2022-09-14T10:49:20;15.70;99.90
23069;DHT22;11702;50.856;4.348;2022-09-14T10:55:11;15.70;99.90
23069;DHT22;11702;50.856;4.348;2022-09-14T11:01:13;15.50;99.90
23069;DHT22;11702;50.856;4.348;2022-09-14T11:06:55;15.50;99.90
23069;DHT22;11702;50.856;4.348;2022-09-14T11:09:31;15.50;99.90
23069;DHT22;11702;50.856;4.348;2022-09-14T11:12:02;15.60;99.90
23069;DHT22;11702;50.856;4.348;2022-09-14T11:14:43;15.70;99.90
23069;DHT22;11702;50.856;4.348;2022-09-14T11:20:12;15.80;99.90
23069;DHT22;11702;50.856;4.348;2022-09-14T11:23:20;15.80;99.90
23069;DHT22;11702;50.856;4.348;2022-09-14T11:25:56;15.80;99.90
23069;DHT22;11702;50.856;4.348;2022-09-14T11:31:18;15.90;99.90
23069;DHT22;11702;50.856;4.348;2022-09-14T11:33:50;15.80;99.90
23069;DHT22;11702;50.856;4.348;2022-09-14T11:36:38;15.90;99.90
23069;DHT22;11702;50.856;4.348;2022-09-14T11:39:18;15.90;99.90
23069;DHT22;11702;50.856;4.348;2022-09-14T11:42:09;15.90;99.90
23069;DHT22;11702;50.856;4.348;2022-09-14T11:44:39;15.90;99.90
23069;DHT22;11702;50.856;4.348;2022-09-14T11:47:11;15.90;99.90
23069;DHT22;11702;50.856;4.348;2022-09-14T11:52:25;15.70;99.90
23069;DHT22;11702;50.856;4.348;2022-09-14T11:54:52;15.70;99.90
23069;DHT22;11702;50.856;4.348;2022-09-14T11:57:21;15.80;99.90
23069;DHT22;11702;50.856;4.348;2022-09-14T12:28:46;15.90;99.90
23069;DHT22;11702;50.856;4.348;2022-09-14T12:31:30;15.90;99.90
23069;DHT22;11702;50.856;4.348;2022-09-14T12:34:15;15.90;99.90
23069;DHT22;11702;50.856;4.348;2022-09-14T12:39:33;16.00;99.90
23069;DHT22;11702;50.856;4.348;2022-09-14T12:42:28;16.00;99.90
23069;DHT22;11702;50.856;4.348;2022-09-14T12:44:56;16.00;99.90
23069;DHT22;11702;50.856;4.348;2022-09-14T12:49:56;16.10;99.90
23069;DHT22;11702;50.856;4.348;2022-09-14T12:58:53;16.20;99.90
23069;DHT22;11702;50.856;4.348;2022-09-14T13:01:30;16.20;99.90
23069;DHT22;11702;50.856;4.348;2022-09-14T13:03:58;16.20;99.90
23069;DHT22;11702;50.856;4.348;2022-09-14T13:06:34;16.10;99.90
23069;DHT22;11702;50.856;4.348;2022-09-14T13:09:03;16.10;99.90
23069;DHT22;11702;50.856;4.348;2022-09-14T13:11:32;16.10;99.90
23069;DHT22;11702;50.856;4.348;2022-09-14T13:14:01;16.20;99.90
23069;DHT22;11702;50.856;4.348;2022-09-14T13:16:47;16.40;99.90
23069;DHT22;11702;50.856;4.348;2022-09-14T13:19:22;16.50;99.90
23069;DHT22;11702;50.856;4.348;2022-09-14T13:21:51;16.50;99.90
23069;DHT22;11702;50.856;4.348;2022-09-14T13:24:29;16.60;99.90
23069;DHT22;11702;50.856;4.348;2022-09-14T13:26:58;16.70;99.90
23069;DHT22;11702;50.856;4.348;2022-09-14T13:29:25;16.60;99.90
23069;DHT22;11702;50.856;4.348;2022-09-14T13:31:52;16.40;99.90
23069;DHT22;11702;50.856;4.348;2022-09-14T13:34:33;16.40;99.90
23069;DHT22;11702;50.856;4.348;2022-09-14T13:37:00;16.20;99.90
23069;DHT22;11702;50.856;4.348;2022-09-14T13:39:32;16.20;99.90
23069;DHT22;11702;50.856;4.348;2022-09-14T13:41:58;16.20;99.90
23069;DHT22;11702;50.856;4.348;2022-09-14T13:44:35;16.10;99.90
23069;DHT22;11702;50.856;4.348;2022-09-14T13:47:06;16.10;99.90
23069;DHT22;11702;50.856;4.348;2022-09-14T13:49:34;16.20;99.90
23069;DHT22;11702;50.856;4.348;2022-09-14T13:54:53;16.30;99.90
23069;DHT22;11702;50.856;4.348;2022-09-14T13:57:23;16.20;99.90
23069;DHT22;11702;50.856;4.348;2022-09-14T14:00:20;16.40;99.90
23069;DHT22;11702;50.856;4.348;2022-09-14T14:02:49;16.40;99.90
23069;DHT22;11702;50.856;4.348;2022-09-14T14:05:27;16.60;99.90
23069;DHT22;11702;50.856;4.348;2022-09-14T14:07:55;16.50;99.90
23069;DHT22;11702;50.856;4.348;2022-09-14T14:10:31;16.40;99.90
23069;DHT22;11702;50.856;4.348;2022-09-14T14:12:59;16.50;99.90
23069;DHT22;11702;50.856;4.348;2022-09-14T14:17:51;16.60;99.90
23069;DHT22;11702;50.856;4.348;2022-09-14T14:20:27;16.50;99.90
23069;DHT22;11702;50.856;4.348;2022-09-14T14:25:45;16.10;99.90
23069;DHT22;11702;50.856;4.348;2022-09-14T14:28:26;16.00;99.90
23069;DHT22;11702;50.856;4.348;2022-09-14T14:30:53;16.10;99.90
23069;DHT22;11702;50.856;4.348;2022-09-14T14:33:19;16.10;99.90
23069;DHT22;11702;50.856;4.348;2022-09-14T14:35:46;16.00;99.90
23069;DHT22;11702;50.856;4.348;2022-09-14T14:38:17;16.00;99.90
23069;DHT22;11702;50.856;4.348;2022-09-14T14:40:43;16.00;99.90
23069;DHT22;11702;50.856;4.348;2022-09-14T14:43:17;15.90;99.90
23069;DHT22;11702;50.856;4.348;2022-09-14T14:45:43;15.90;99.90
23069;DHT22;11702;50.856;4.348;2022-09-14T14:48:10;15.90;99.90
23069;DHT22;11702;50.856;4.348;2022-09-14T14:50:36;15.90;99.90
23069;DHT22;11702;50.856;4.348;2022-09-14T14:53:03;15.80;99.90
23069;DHT22;11702;50.856;4.348;2022-09-14T14:55:30;15.70;99.90
23069;DHT22;11702;50.856;4.348;2022-09-14T14:58:01;15.70;99.90
23069;DHT22;11702;50.856;4.348;2022-09-14T15:00:30;15.60;99.90
23069;DHT22;11702;50.856;4.348;2022-09-14T15:02:56;15.60;99.90
23069;DHT22;11702;50.856;4.348;2022-09-14T15:05:23;15.60;99.90
23069;DHT22;11702;50.856;4.348;2022-09-14T15:07:49;15.70;99.90
23069;DHT22;11702;50.856;4.348;2022-09-14T15:10:17;15.60;99.90
23069;DHT22;11702;50.856;4.348;2022-09-14T15:12:43;15.60;99.90
23069;DHT22;11702;50.856;4.348;2022-09-14T15:15:18;15.60;99.90
23069;DHT22;11702;50.856;4.348;2022-09-14T15:17:44;15.70;99.90
23069;DHT22;11702;50.856;4.348;2022-09-14T15:20:10;15.60;99.90
23069;DHT22;11702;50.856;4.348;2022-09-14T15:22:36;15.60;99.90
23069;DHT22;11702;50.856;4.348;2022-09-14T15:25:03;15.60;99.90
23069;DHT22;11702;50.856;4.348;2022-09-14T15:27:28;15.60;99.90
23069;DHT22;11702;50.856;4.348;2022-09-14T15:29:54;15.80;99.90
23069;DHT22;11702;50.856;4.348;2022-09-14T15:32:20;15.90;99.90
23069;DHT22;11702;50.856;4.348;2022-09-14T15:34:45;16.10;99.90
23069;DHT22;11702;50.856;4.348;2022-09-14T15:37:12;16.00;99.90
23069;DHT22;11702;50.856;4.348;2022-09-14T15:39:37;16.00;99.90
23069;DHT22;11702;50.856;4.348;2022-09-14T15:42:04;15.90;99.90
23069;DHT22;11702;50.856;4.348;2022-09-14T15:44:29;16.00;99.90
23069;DHT22;11702;50.856;4.348;2022-09-14T15:46:57;15.70;99.90
23069;DHT22;11702;50.856;4.348;2022-09-14T15:49:24;15.60;99.90
23069;DHT22;11702;50.856;4.348;2022-09-14T15:51:52;15.60;99.90
23069;DHT22;11702;50.856;4.348;2022-09-14T15:54:19;15.40;99.90
23069;DHT22;11702;50.856;4.348;2022-09-14T15:56:55;15.50;99.90
23069;DHT22;11702;50.856;4.348;2022-09-14T15:59:23;15.50;99.90
23069;DHT22;11702;50.856;4.348;2022-09-14T16:01:49;15.50;99.90
23069;DHT22;11702;50.856;4.348;2022-09-14T16:04:15;15.40;99.90
23069;DHT22;11702;50.856;4.348;2022-09-14T16:06:40;15.50;99.90
23069;DHT22;11702;50.856;4.348;2022-09-14T16:09:10;15.30;99.90
23069;DHT22;11702;50.856;4.348;2022-09-14T16:11:37;15.30;99.90
23069;DHT22;11702;50.856;4.348;2022-09-14T16:14:04;15.30;99.90
23069;DHT22;11702;50.856;4.348;2022-09-14T16:16:30;15.40;99.90
23069;DHT22;11702;50.856;4.348;2022-09-14T16:18:56;15.40;99.90
23069;DHT22;11702;50.856;4.348;2022-09-14T16:21:25;15.40;99.90
23069;DHT22;11702;50.856;4.348;2022-09-14T16:23:54;15.40;99.90
23069;DHT22;11702;50.856;4.348;2022-09-14T16:26:22;15.30;99.90
23069;DHT22;11702;50.856;4.348;2022-09-14T16:28:49;15.20;99.90
23069;DHT22;11702;50.856;4.348;2022-09-14T16:31:27;15.30;99.90
23069;DHT22;11702;50.856;4.348;2022-09-14T16:33:56;15.20;99.90
23069;DHT22;11702;50.856;4.348;2022-09-14T16:36:24;15.10;99.90
23069;DHT22;11702;50.856;4.348;2022-09-14T16:38:52;15.20;99.90
23069;DHT22;11702;50.856;4.348;2022-09-14T16:41:19;15.10;99.90
23069;DHT22;11702;50.856;4.348;2022-09-14T16:43:45;15.10;99.90
23069;DHT22;11702;50.856;4.348;2022-09-14T16:46:15;15.10;99.90
23069;DHT22;11702;50.856;4.348;2022-09-14T16:48:44;15.00;99.90
23069;DHT22;11702;50.856;4.348;2022-09-14T16:51:13;15.00;99.90
23069;DHT22;11702;50.856;4.348;2022-09-14T16:53:41;15.00;99.90
23069;DHT22;11702;50.856;4.348;2022-09-14T16:56:12;15.00;99.90
23069;DHT22;11702;50.856;4.348;2022-09-14T16:58:38;14.90;99.90
23069;DHT22;11702;50.856;4.348;2022-09-14T17:01:15;15.00;99.90
23069;DHT22;11702;50.856;4.348;2022-09-14T17:03:42;14.90;99.90
23069;DHT22;11702;50.856;4.348;2022-09-14T17:06:11;14.80;99.90
23069;DHT22;11702;50.856;4.348;2022-09-14T17:08:38;14.70;99.90
23069;DHT22;11702;50.856;4.348;2022-09-14T17:11:05;14.70;99.90
23069;DHT22;11702;50.856;4.348;2022-09-14T17:13:31;14.60;99.90
23069;DHT22;11702;50.856;4.348;2022-09-14T17:18:27;14.70;99.90
23069;DHT22;11702;50.856;4.348;2022-09-14T17:20:58;14.70;99.90
23069;DHT22;11702;50.856;4.348;2022-09-14T17:23:24;14.70;99.90
23069;DHT22;11702;50.856;4.348;2022-09-14T17:25:50;14.60;99.90
23069;DHT22;11702;50.856;4.348;2022-09-14T17:28:18;14.60;99.90
23069;DHT22;11702;50.856;4.348;2022-09-14T17:30:44;14.60;99.90
23069;DHT22;11702;50.856;4.348;2022-09-14T17:33:09;14.50;99.90
23069;DHT22;11702;50.856;4.348;2022-09-14T17:35:35;14.50;99.90
23069;DHT22;11702;50.856;4.348;2022-09-14T17:38:01;14.50;99.90
23069;DHT22;11702;50.856;4.348;2022-09-14T17:40:29;14.50;99.90
23069;DHT22;11702;50.856;4.348;2022-09-14T17:42:54;14.50;99.90
23069;DHT22;11702;50.856;4.348;2022-09-14T17:45:20;14.50;99.90
23069;DHT22;11702;50.856;4.348;2022-09-14T17:47:46;14.50;99.90
23069;DHT22;11702;50.856;4.348;2022-09-14T17:50:11;14.50;99.90
23069;DHT22;11702;50.856;4.348;2022-09-14T17:52:37;14.40;99.90
23069;DHT22;11702;50.856;4.348;2022-09-14T17:55:03;14.40;99.90
23069;DHT22;11702;50.856;4.348;2022-09-14T17:57:30;14.50;99.90
23069;DHT22;11702;50.856;4.348;2022-09-14T17:59:56;14.50;99.90